sensor_id;sensor_type;location;lat;lon;timestamp;pressure;altitude;pressure_sealevel;temperature;humidity
15678;BME280;7939;50.814;6.368;2023-02-13T00:00:33;101925.00;;;10.22;63.09
15678;BME280;7939;50.814;6.368;2023-02-13T00:03:03;101928.44;;;10.22;63.07
15678;BME280;7939;50.814;6.368;2023-02-13T00:05:29;101923.28;;;10.21;62.72
15678;BME280;7939;50.814;6.368;2023-02-13T00:07:56;101925.78;;;10.19;62.64
15678;BME280;7939;50.814;6.368;2023-02-13T00:10:23;101920.59;;;10.18;62.67
15678;BME280;7939;50.814;6.368;2023-02-13T00:12:50;101917.19;;;10.17;62.93
15678;BME280;7939;50.814;6.368;2023-02-13T00:15:17;101923.97;;;10.17;62.74
15678;BME280;7939;50.814;6.368;2023-02-13T00:17:43;101919.69;;;10.16;63.00
15678;BME280;7939;50.814;6.368;2023-02-13T00:20:11;101924.78;;;10.16;62.87
15678;BME280;7939;50.814;6.368;2023-02-13T00:22:39;101918.78;;;10.14;62.72
15678;BME280;7939;50.814;6.368;2023-02-13T00:25:06;101916.16;;;10.12;62.95
15678;BME280;7939;50.814;6.368;2023-02-13T00:27:33;101911.84;;;10.11;62.63
15678;BME280;7939;50.814;6.368;2023-02-13T00:30:00;101913.53;;;10.11;62.63
15678;BME280;7939;50.814;6.368;2023-02-13T00:32:27;101911.78;;;10.10;62.78
15678;BME280;7939;50.814;6.368;2023-02-13T00:34:55;101919.47;;;10.10;62.61
15678;BME280;7939;50.814;6.368;2023-02-13T00:37:24;101917.69;;;10.07;62.51
15678;BME280;7939;50.814;6.368;2023-02-13T00:39:50;101925.34;;;10.07;62.63
15678;BME280;7939;50.814;6.368;2023-02-13T00:42:17;101925.28;;;10.06;62.69
15678;BME280;7939;50.814;6.368;2023-02-13T00:44:44;101917.63;;;10.06;62.77
15678;BME280;7939;50.814;6.368;2023-02-13T00:47:11;101911.56;;;10.04;62.61
15678;BME280;7939;50.814;6.368;2023-02-13T00:49:39;101908.97;;;10.02;62.78
15678;BME280;7939;50.814;6.368;2023-02-13T00:52:05;101908.97;;;10.02;62.51
15678;BME280;7939;50.814;6.368;2023-02-13T00:54:34;101913.22;;;10.02;62.79
15678;BME280;7939;50.814;6.368;2023-02-13T00:57:00;101907.22;;;10.01;62.39
15678;BME280;7939;50.814;6.368;2023-02-13T00:59:28;101901.25;;;10.00;62.31
15678;BME280;7939;50.814;6.368;2023-02-13T01:01:54;101900.31;;;9.98;62.17
15678;BME280;7939;50.814;6.368;2023-02-13T01:04:21;101894.34;;;9.98;62.62
15678;BME280;7939;50.814;6.368;2023-02-13T01:06:48;101892.59;;;9.97;62.49
15678;BME280;7939;50.814;6.368;2023-02-13T01:09:14;101891.72;;;9.96;62.58
15678;BME280;7939;50.814;6.368;2023-02-13T01:11:42;101891.72;;;9.96;63.04
15678;BME280;7939;50.814;6.368;2023-02-13T01:14:09;101893.38;;;9.94;62.68
15678;BME280;7939;50.814;6.368;2023-02-13T01:16:36;101890.81;;;9.94;62.48
15678;BME280;7939;50.814;6.368;2023-02-13T01:19:03;101895.06;;;9.94;62.55
15678;BME280;7939;50.814;6.368;2023-02-13T01:21:30;101885.63;;;9.93;62.64
15678;BME280;7939;50.814;6.368;2023-02-13T01:23:57;101885.63;;;9.93;62.50
15678;BME280;7939;50.814;6.368;2023-02-13T01:26:23;101884.72;;;9.91;62.72
15678;BME280;7939;50.814;6.368;2023-02-13T01:28:53;101883.84;;;9.90;62.53
15678;BME280;7939;50.814;6.368;2023-02-13T01:31:20;101882.13;;;9.89;62.69
15678;BME280;7939;50.814;6.368;2023-02-13T01:33:47;101884.63;;;9.88;62.56
15678;BME280;7939;50.814;6.368;2023-02-13T01:36:14;101882.94;;;9.88;62.82
15678;BME280;7939;50.814;6.368;2023-02-13T01:38:41;101882.06;;;9.88;62.58
15678;BME280;7939;50.814;6.368;2023-02-13T01:41:09;101876.09;;;9.87;62.56
15678;BME280;7939;50.814;6.368;2023-02-13T01:43:48;101884.53;;;9.86;62.63
15678;BME280;7939;50.814;6.368;2023-02-13T01:46:24;101891.34;;;9.86;62.64
15678;BME280;7939;50.814;6.368;2023-02-13T01:48:53;101889.59;;;9.85;62.66
15678;BME280;7939;50.814;6.368;2023-02-13T01:51:25;101887.03;;;9.85;62.69
15678;BME280;7939;50.814;6.368;2023-02-13T01:53:56;101882.75;;;9.84;62.57
15678;BME280;7939;50.814;6.368;2023-02-13T01:56:27;101887.00;;;9.83;62.62
15678;BME280;7939;50.814;6.368;2023-02-13T01:58:59;101886.13;;;9.83;62.64
15678;BME280;7939;50.814;6.368;2023-02-13T02:01:27;101892.94;;;9.82;62.47
15678;BME280;7939;50.814;6.368;2023-02-13T02:03:57;101882.72;;;9.82;62.76
15678;BME280;7939;50.814;6.368;2023-02-13T02:06:27;101887.81;;;9.82;62.95
15678;BME280;7939;50.814;6.368;2023-02-13T02:08:58;101881.75;;;9.80;62.59
15678;BME280;7939;50.814;6.368;2023-02-13T02:11:31;101881.75;;;9.80;62.66
15678;BME280;7939;50.814;6.368;2023-02-13T02:14:00;101890.25;;;9.79;62.99
15678;BME280;7939;50.814;6.368;2023-02-13T02:16:30;101884.25;;;9.79;62.77
15678;BME280;7939;50.814;6.368;2023-02-13T02:18:57;101885.13;;;9.79;63.16
15678;BME280;7939;50.814;6.368;2023-02-13T02:25:05;101879.09;;;9.77;63.06
15678;BME280;7939;50.814;6.368;2023-02-13T02:27:49;101885.91;;;9.77;62.81
15678;BME280;7939;50.814;6.368;2023-02-13T02:30:50;101881.63;;;9.76;63.21
15678;BME280;7939;50.814;6.368;2023-02-13T02:33:28;101886.63;;;9.74;63.08
15678;BME280;7939;50.814;6.368;2023-02-13T02:36:09;101886.63;;;9.74;63.19
15678;BME280;7939;50.814;6.368;2023-02-13T02:38:48;101889.19;;;9.74;62.97
15678;BME280;7939;50.814;6.368;2023-02-13T02:41:28;101884.03;;;9.72;62.83
15678;BME280;7939;50.814;6.368;2023-02-13T02:44:14;101884.91;;;9.73;63.26
15678;BME280;7939;50.814;6.368;2023-02-13T02:46:54;101884.91;;;9.73;62.93
15678;BME280;7939;50.814;6.368;2023-02-13T02:49:39;101886.59;;;9.72;63.28
15678;BME280;7939;50.814;6.368;2023-02-13T02:52:32;101876.31;;;9.71;63.27
15678;BME280;7939;50.814;6.368;2023-02-13T02:55:06;101884.00;;;9.71;63.27
15678;BME280;7939;50.814;6.368;2023-02-13T02:57:39;101884.03;;;9.72;63.51
15678;BME280;7939;50.814;6.368;2023-02-13T03:00:26;101882.25;;;9.70;63.49
15678;BME280;7939;50.814;6.368;2023-02-13T03:03:14;101879.75;;;9.71;63.29
15678;BME280;7939;50.814;6.368;2023-02-13T03:06:03;101872.03;;;9.70;63.50
15678;BME280;7939;50.814;6.368;2023-02-13T03:08:39;101877.97;;;9.69;63.50
15678;BME280;7939;50.814;6.368;2023-02-13T03:11:40;101877.09;;;9.68;63.48
15678;BME280;7939;50.814;6.368;2023-02-13T03:14:26;101875.41;;;9.69;64.05
15678;BME280;7939;50.814;6.368;2023-02-13T03:16:54;101872.00;;;9.68;63.17
15678;BME280;7939;50.814;6.368;2023-02-13T03:19:50;101882.19;;;9.68;63.48
15678;BME280;7939;50.814;6.368;2023-02-13T03:22:43;101879.69;;;9.70;63.67
15678;BME280;7939;50.814;6.368;2023-02-13T03:25:20;101880.53;;;9.69;63.94
15678;BME280;7939;50.814;6.368;2023-02-13T03:27:56;101875.41;;;9.69;63.65
15678;BME280;7939;50.814;6.368;2023-02-13T03:30:51;101882.19;;;9.68;64.02
15678;BME280;7939;50.814;6.368;2023-02-13T03:33:29;101877.97;;;9.69;64.13
15678;BME280;7939;50.814;6.368;2023-02-13T03:36:09;101879.66;;;9.68;64.21
15678;BME280;7939;50.814;6.368;2023-02-13T03:39:02;101879.66;;;9.68;63.73
15678;BME280;7939;50.814;6.368;2023-02-13T03:41:37;101882.19;;;9.68;63.86
15678;BME280;7939;50.814;6.368;2023-02-13T03:44:10;101875.41;;;9.69;63.73
15678;BME280;7939;50.814;6.368;2023-02-13T03:46:41;101871.91;;;9.67;63.82
15678;BME280;7939;50.814;6.368;2023-02-13T03:49:14;101875.34;;;9.67;63.82
15678;BME280;7939;50.814;6.368;2023-02-13T03:52:04;101875.34;;;9.67;64.32
15678;BME280;7939;50.814;6.368;2023-02-13T03:54:38;101877.09;;;9.68;64.18
15678;BME280;7939;50.814;6.368;2023-02-13T03:57:26;101883.88;;;9.68;63.97
15678;BME280;7939;50.814;6.368;2023-02-13T04:00:14;101879.66;;;9.68;63.97
15678;BME280;7939;50.814;6.368;2023-02-13T04:02:48;101889.00;;;9.68;64.40
15678;BME280;7939;50.814;6.368;2023-02-13T04:05:19;101886.44;;;9.68;63.70
15678;BME280;7939;50.814;6.368;2023-02-13T04:07:47;101882.13;;;9.67;64.26
15678;BME280;7939;50.814;6.368;2023-02-13T04:10:16;101884.75;;;9.68;63.96
15678;BME280;7939;50.814;6.368;2023-02-13T04:12:50;101881.34;;;9.68;63.86
15678;BME280;7939;50.814;6.368;2023-02-13T04:15:20;101883.88;;;9.68;63.92
15678;BME280;7939;50.814;6.368;2023-02-13T04:17:54;101886.50;;;9.69;63.81
15678;BME280;7939;50.814;6.368;2023-02-13T04:20:25;101883.00;;;9.67;64.15
15678;BME280;7939;50.814;6.368;2023-02-13T04:22:52;101881.34;;;9.68;63.90
15678;BME280;7939;50.814;6.368;2023-02-13T04:25:20;101883.06;;;9.69;63.74
15678;BME280;7939;50.814;6.368;2023-02-13T04:27:47;101889.88;;;9.68;64.34
15678;BME280;7939;50.814;6.368;2023-02-13T04:30:14;101887.31;;;9.68;63.96
15678;BME280;7939;50.814;6.368;2023-02-13T04:32:41;101888.19;;;9.69;63.95
15678;BME280;7939;50.814;6.368;2023-02-13T04:35:07;101889.00;;;9.68;63.81
15678;BME280;7939;50.814;6.368;2023-02-13T04:37:35;101889.88;;;9.68;64.45
15678;BME280;7939;50.814;6.368;2023-02-13T04:40:02;101886.44;;;9.68;64.27
15678;BME280;7939;50.814;6.368;2023-02-13T04:42:30;101884.75;;;9.68;64.32
15678;BME280;7939;50.814;6.368;2023-02-13T04:44:57;101886.44;;;9.68;64.09
15678;BME280;7939;50.814;6.368;2023-02-13T04:47:24;101883.81;;;9.66;64.16
15678;BME280;7939;50.814;6.368;2023-02-13T04:49:50;101883.88;;;9.68;63.97
15678;BME280;7939;50.814;6.368;2023-02-13T04:52:17;101879.56;;;9.67;64.32
15678;BME280;7939;50.814;6.368;2023-02-13T04:54:43;101880.44;;;9.67;63.88
15678;BME280;7939;50.814;6.368;2023-02-13T04:57:10;101877.09;;;9.68;63.96
15678;BME280;7939;50.814;6.368;2023-02-13T04:59:38;101872.84;;;9.69;64.04
15678;BME280;7939;50.814;6.368;2023-02-13T05:02:05;101867.75;;;9.69;64.06
15678;BME280;7939;50.814;6.368;2023-02-13T05:04:32;101868.50;;;9.66;63.85
15678;BME280;7939;50.814;6.368;2023-02-13T05:06:59;101872.84;;;9.69;63.83
15678;BME280;7939;50.814;6.368;2023-02-13T05:09:25;101872.00;;;9.68;63.86
15678;BME280;7939;50.814;6.368;2023-02-13T05:11:53;101871.13;;;9.68;64.22
15678;BME280;7939;50.814;6.368;2023-02-13T05:14:19;101877.00;;;9.67;64.23
15678;BME280;7939;50.814;6.368;2023-02-13T05:16:48;101870.22;;;9.67;64.37
15678;BME280;7939;50.814;6.368;2023-02-13T05:19:15;101877.88;;;9.67;63.92
15678;BME280;7939;50.814;6.368;2023-02-13T05:21:41;101879.53;;;9.65;64.33
15678;BME280;7939;50.814;6.368;2023-02-13T05:24:25;101879.53;;;9.65;64.49
15678;BME280;7939;50.814;6.368;2023-02-13T05:26:52;101878.69;;;9.66;63.66
15678;BME280;7939;50.814;6.368;2023-02-13T05:29:19;101877.78;;;9.64;64.18
15678;BME280;7939;50.814;6.368;2023-02-13T05:31:49;101884.56;;;9.64;63.96
15678;BME280;7939;50.814;6.368;2023-02-13T05:34:16;101883.72;;;9.63;64.02
15678;BME280;7939;50.814;6.368;2023-02-13T05:36:43;101884.56;;;9.64;63.94
15678;BME280;7939;50.814;6.368;2023-02-13T05:39:10;101877.66;;;9.61;63.67
15678;BME280;7939;50.814;6.368;2023-02-13T05:41:36;101887.06;;;9.62;64.20
15678;BME280;7939;50.814;6.368;2023-02-13T05:44:03;101894.72;;;9.62;64.06
15678;BME280;7939;50.814;6.368;2023-02-13T05:46:30;101898.97;;;9.62;63.73
15678;BME280;7939;50.814;6.368;2023-02-13T05:48:57;101902.31;;;9.61;64.09
15678;BME280;7939;50.814;6.368;2023-02-13T05:51:24;101892.09;;;9.61;64.07
15678;BME280;7939;50.814;6.368;2023-02-13T05:53:51;101888.69;;;9.60;64.02
15678;BME280;7939;50.814;6.368;2023-02-13T05:56:17;101900.56;;;9.60;64.17
15678;BME280;7939;50.814;6.368;2023-02-13T05:58:44;101893.72;;;9.59;64.04
15678;BME280;7939;50.814;6.368;2023-02-13T06:01:11;101890.31;;;9.58;63.77
15678;BME280;7939;50.814;6.368;2023-02-13T06:03:38;101892.00;;;9.58;63.75
15678;BME280;7939;50.814;6.368;2023-02-13T06:06:07;101890.25;;;9.57;63.58
15678;BME280;7939;50.814;6.368;2023-02-13T06:08:33;101893.69;;;9.57;63.45
15678;BME280;7939;50.814;6.368;2023-02-13T06:11:00;101897.06;;;9.56;63.34
15678;BME280;7939;50.814;6.368;2023-02-13T06:13:27;101891.88;;;9.55;63.56
15678;BME280;7939;50.814;6.368;2023-02-13T06:15:54;101890.94;;;9.53;63.36
15678;BME280;7939;50.814;6.368;2023-02-13T06:18:21;101893.50;;;9.53;63.54
15678;BME280;7939;50.814;6.368;2023-02-13T06:20:48;101882.38;;;9.51;63.16
15678;BME280;7939;50.814;6.368;2023-02-13T06:23:16;101884.94;;;9.51;62.90
15678;BME280;7939;50.814;6.368;2023-02-13T06:25:42;101884.88;;;9.49;63.00
15678;BME280;7939;50.814;6.368;2023-02-13T06:28:09;101879.69;;;9.48;62.97
15678;BME280;7939;50.814;6.368;2023-02-13T06:30:36;101884.78;;;9.48;63.15
15678;BME280;7939;50.814;6.368;2023-02-13T06:33:03;101874.53;;;9.46;63.16
15678;BME280;7939;50.814;6.368;2023-02-13T06:35:31;101880.50;;;9.46;62.88
15678;BME280;7939;50.814;6.368;2023-02-13T06:37:57;101880.41;;;9.43;62.95
15678;BME280;7939;50.814;6.368;2023-02-13T06:40:25;101881.19;;;9.42;63.25
15678;BME280;7939;50.814;6.368;2023-02-13T06:42:52;101888.84;;;9.42;63.22
15678;BME280;7939;50.814;6.368;2023-02-13T06:45:18;101881.13;;;9.41;62.63
15678;BME280;7939;50.814;6.368;2023-02-13T06:47:46;101878.59;;;9.41;62.67
15678;BME280;7939;50.814;6.368;2023-02-13T06:50:14;101876.03;;;9.41;62.62
15678;BME280;7939;50.814;6.368;2023-02-13T06:52:45;101881.09;;;9.39;62.55
15678;BME280;7939;50.814;6.368;2023-02-13T06:55:12;101877.66;;;9.39;63.36
15678;BME280;7939;50.814;6.368;2023-02-13T06:57:40;101883.59;;;9.38;62.56
15678;BME280;7939;50.814;6.368;2023-02-13T07:00:08;101883.59;;;9.38;62.94
15678;BME280;7939;50.814;6.368;2023-02-13T07:02:37;101883.59;;;9.38;63.15
15678;BME280;7939;50.814;6.368;2023-02-13T07:05:04;101874.19;;;9.37;62.44
15678;BME280;7939;50.814;6.368;2023-02-13T07:07:32;101875.06;;;9.37;62.65
15678;BME280;7939;50.814;6.368;2023-02-13T07:09:58;101878.41;;;9.36;63.00
15678;BME280;7939;50.814;6.368;2023-02-13T07:12:26;101874.94;;;9.34;62.83
15678;BME280;7939;50.814;6.368;2023-02-13T07:14:53;101874.06;;;9.34;62.73
15678;BME280;7939;50.814;6.368;2023-02-13T07:17:20;101875.69;;;9.32;62.62
15678;BME280;7939;50.814;6.368;2023-02-13T07:19:47;101873.13;;;9.32;62.72
15678;BME280;7939;50.814;6.368;2023-02-13T07:22:14;101885.94;;;9.33;62.55
15678;BME280;7939;50.814;6.368;2023-02-13T07:24:40;101881.63;;;9.31;62.73
15678;BME280;7939;50.814;6.368;2023-02-13T07:27:07;101877.38;;;9.31;62.33
15678;BME280;7939;50.814;6.368;2023-02-13T07:29:34;101878.97;;;9.29;62.34
15678;BME280;7939;50.814;6.368;2023-02-13T07:32:02;101878.97;;;9.29;62.78
15678;BME280;7939;50.814;6.368;2023-02-13T07:34:29;101885.75;;;9.29;62.47
15678;BME280;7939;50.814;6.368;2023-02-13T07:36:56;101878.09;;;9.29;62.82
15678;BME280;7939;50.814;6.368;2023-02-13T07:39:22;101872.09;;;9.27;62.76
15678;BME280;7939;50.814;6.368;2023-02-13T07:41:49;101876.38;;;9.28;62.92
15678;BME280;7939;50.814;6.368;2023-02-13T07:44:16;101873.78;;;9.26;62.61
15678;BME280;7939;50.814;6.368;2023-02-13T07:46:43;101873.78;;;9.26;62.60
15678;BME280;7939;50.814;6.368;2023-02-13T07:49:11;101878.00;;;9.26;63.07
15678;BME280;7939;50.814;6.368;2023-02-13T07:51:38;101869.47;;;9.25;62.88
15678;BME280;7939;50.814;6.368;2023-02-13T07:54:05;101871.94;;;9.24;62.48
15678;BME280;7939;50.814;6.368;2023-02-13T07:56:31;101869.41;;;9.24;62.29
15678;BME280;7939;50.814;6.368;2023-02-13T07:58:58;101870.31;;;9.24;62.71
15678;BME280;7939;50.814;6.368;2023-02-13T08:01:25;101871.09;;;9.23;62.95
15678;BME280;7939;50.814;6.368;2023-02-13T08:03:51;101868.47;;;9.22;62.96
15678;BME280;7939;50.814;6.368;2023-02-13T08:06:20;101868.47;;;9.22;62.50
15678;BME280;7939;50.814;6.368;2023-02-13T08:08:47;101871.09;;;9.23;63.10
15678;BME280;7939;50.814;6.368;2023-02-13T08:11:34;101881.28;;;9.23;62.98
15678;BME280;7939;50.814;6.368;2023-02-13T08:14:18;101880.50;;;9.24;63.17
15678;BME280;7939;50.814;6.368;2023-02-13T08:16:44;101885.66;;;9.26;63.40
15678;BME280;7939;50.814;6.368;2023-02-13T08:19:11;101888.84;;;9.20;62.72
15678;BME280;7939;50.814;6.368;2023-02-13T08:21:40;101889.47;;;9.14;62.64
15678;BME280;7939;50.814;6.368;2023-02-13T08:24:06;101897.41;;;9.22;62.89
15678;BME280;7939;50.814;6.368;2023-02-13T08:26:34;101893.94;;;9.20;62.97
15678;BME280;7939;50.814;6.368;2023-02-13T08:29:02;101897.34;;;9.21;63.47
15678;BME280;7939;50.814;6.368;2023-02-13T08:31:28;101899.97;;;9.22;62.96
15678;BME280;7939;50.814;6.368;2023-02-13T08:33:55;101900.09;;;9.25;63.10
15678;BME280;7939;50.814;6.368;2023-02-13T08:36:22;101894.91;;;9.24;63.56
15678;BME280;7939;50.814;6.368;2023-02-13T08:38:50;101896.78;;;9.28;63.40
15678;BME280;7939;50.814;6.368;2023-02-13T08:41:17;101900.25;;;9.30;63.59
15678;BME280;7939;50.814;6.368;2023-02-13T08:43:45;101897.69;;;9.30;63.12
15678;BME280;7939;50.814;6.368;2023-02-13T08:46:11;101900.25;;;9.30;63.15
15678;BME280;7939;50.814;6.368;2023-02-13T08:48:38;101901.94;;;9.29;63.68
15678;BME280;7939;50.814;6.368;2023-02-13T08:51:05;101901.22;;;9.32;63.10
15678;BME280;7939;50.814;6.368;2023-02-13T08:53:33;101903.81;;;9.33;63.19
15678;BME280;7939;50.814;6.368;2023-02-13T08:56:01;101902.94;;;9.33;63.54
15678;BME280;7939;50.814;6.368;2023-02-13T08:58:28;101905.69;;;9.37;63.79
15678;BME280;7939;50.814;6.368;2023-02-13T09:00:55;101903.19;;;9.39;63.87
15678;BME280;7939;50.814;6.368;2023-02-13T09:03:21;101904.09;;;9.41;63.43
15678;BME280;7939;50.814;6.368;2023-02-13T09:05:48;101905.91;;;9.43;63.66
15678;BME280;7939;50.814;6.368;2023-02-13T09:08:15;101904.28;;;9.45;63.70
15678;BME280;7939;50.814;6.368;2023-02-13T09:10:42;101897.50;;;9.46;63.41
15678;BME280;7939;50.814;6.368;2023-02-13T09:13:10;101894.94;;;9.46;63.85
15678;BME280;7939;50.814;6.368;2023-02-13T09:15:38;101902.66;;;9.48;63.86
15678;BME280;7939;50.814;6.368;2023-02-13T09:18:05;101901.91;;;9.50;63.59
15678;BME280;7939;50.814;6.368;2023-02-13T09:20:31;101906.25;;;9.53;63.43
15678;BME280;7939;50.814;6.368;2023-02-13T09:22:58;101913.06;;;9.52;64.03
15678;BME280;7939;50.814;6.368;2023-02-13T09:25:25;101912.19;;;9.52;63.35
15678;BME280;7939;50.814;6.368;2023-02-13T09:27:52;101904.56;;;9.53;64.00
15678;BME280;7939;50.814;6.368;2023-02-13T09:30:20;101906.25;;;9.53;64.11
15678;BME280;7939;50.814;6.368;2023-02-13T09:32:49;101908.00;;;9.54;64.11
15678;BME280;7939;50.814;6.368;2023-02-13T09:35:16;101913.16;;;9.55;64.24
15678;BME280;7939;50.814;6.368;2023-02-13T09:37:43;101914.84;;;9.55;63.61
15678;BME280;7939;50.814;6.368;2023-02-13T09:40:20;101913.16;;;9.55;63.91
15678;BME280;7939;50.814;6.368;2023-02-13T09:42:48;101924.25;;;9.56;64.37
15678;BME280;7939;50.814;6.368;2023-02-13T09:45:17;101922.44;;;9.53;63.76
15678;BME280;7939;50.814;6.368;2023-02-13T09:47:47;101923.38;;;9.55;64.58
15678;BME280;7939;50.814;6.368;2023-02-13T09:50:17;101925.19;;;9.58;64.67
15678;BME280;7939;50.814;6.368;2023-02-13T09:52:48;101923.50;;;9.58;64.50
15678;BME280;7939;50.814;6.368;2023-02-13T09:55:17;101918.50;;;9.61;64.10
15678;BME280;7939;50.814;6.368;2023-02-13T09:57:50;101923.69;;;9.63;64.27
15678;BME280;7939;50.814;6.368;2023-02-13T10:00:20;101922.03;;;9.65;64.79
15678;BME280;7939;50.814;6.368;2023-02-13T10:03:06;101927.19;;;9.66;64.21
15678;BME280;7939;50.814;6.368;2023-02-13T10:05:45;101928.19;;;9.70;64.69
15678;BME280;7939;50.814;6.368;2023-02-13T10:08:20;101922.38;;;9.74;64.79
15678;BME280;7939;50.814;6.368;2023-02-13T10:10:52;101929.31;;;9.77;64.47
15678;BME280;7939;50.814;6.368;2023-02-13T10:13:30;101930.22;;;9.79;64.31
15678;BME280;7939;50.814;6.368;2023-02-13T10:16:06;101929.50;;;9.81;64.73
15678;BME280;7939;50.814;6.368;2023-02-13T10:18:43;101932.19;;;9.86;64.69
15678;BME280;7939;50.814;6.368;2023-02-13T10:21:13;101930.47;;;9.85;64.53
15678;BME280;7939;50.814;6.368;2023-02-13T10:23:43;101932.31;;;9.89;64.67
15678;BME280;7939;50.814;6.368;2023-02-13T10:26:16;101931.59;;;9.93;64.74
15678;BME280;7939;50.814;6.368;2023-02-13T10:28:47;101931.69;;;9.94;64.52
15678;BME280;7939;50.814;6.368;2023-02-13T10:31:38;101924.16;;;9.99;64.66
15678;BME280;7939;50.814;6.368;2023-02-13T10:34:10;101934.47;;;10.00;64.64
15678;BME280;7939;50.814;6.368;2023-02-13T10:36:41;101926.03;;;10.03;64.34
15678;BME280;7939;50.814;6.368;2023-02-13T10:39:20;101926.91;;;10.04;64.50
15678;BME280;7939;50.814;6.368;2023-02-13T10:41:50;101912.56;;;10.07;64.43
15678;BME280;7939;50.814;6.368;2023-02-13T10:44:28;101910.97;;;10.11;64.48
15678;BME280;7939;50.814;6.368;2023-02-13T10:47:05;101917.13;;;10.16;64.42
15678;BME280;7939;50.814;6.368;2023-02-13T10:49:51;101915.50;;;10.18;64.27
15678;BME280;7939;50.814;6.368;2023-02-13T10:52:29;101914.00;;;10.23;64.61
15678;BME280;7939;50.814;6.368;2023-02-13T10:55:10;101908.91;;;10.23;64.51
15678;BME280;7939;50.814;6.368;2023-02-13T10:58:01;101911.56;;;10.26;64.52
15678;BME280;7939;50.814;6.368;2023-02-13T11:00:34;101904.00;;;10.29;64.40
15678;BME280;7939;50.814;6.368;2023-02-13T11:03:03;101903.31;;;10.33;64.58
15678;BME280;7939;50.814;6.368;2023-02-13T11:05:32;101900.84;;;10.36;64.80
15678;BME280;7939;50.814;6.368;2023-02-13T11:08:02;101895.00;;;10.39;64.19
15678;BME280;7939;50.814;6.368;2023-02-13T11:10:29;101894.22;;;10.41;64.39
15678;BME280;7939;50.814;6.368;2023-02-13T11:12:55;101894.34;;;10.44;64.31
15678;BME280;7939;50.814;6.368;2023-02-13T11:15:25;101889.31;;;10.47;64.63
15678;BME280;7939;50.814;6.368;2023-02-13T11:17:54;101889.34;;;10.49;64.43
15678;BME280;7939;50.814;6.368;2023-02-13T11:20:32;101883.50;;;10.51;64.38
15678;BME280;7939;50.814;6.368;2023-02-13T11:23:16;101883.59;;;10.54;63.98
15678;BME280;7939;50.814;6.368;2023-02-13T11:25:55;101883.66;;;10.56;64.07
15678;BME280;7939;50.814;6.368;2023-02-13T11:28:22;101877.81;;;10.60;64.42
15678;BME280;7939;50.814;6.368;2023-02-13T11:30:49;101874.50;;;10.63;64.01
15678;BME280;7939;50.814;6.368;2023-02-13T11:33:22;101878.81;;;10.64;64.52
15678;BME280;7939;50.814;6.368;2023-02-13T11:36:04;101871.22;;;10.67;63.83
15678;BME280;7939;50.814;6.368;2023-02-13T11:38:31;101870.50;;;10.71;63.89
15678;BME280;7939;50.814;6.368;2023-02-13T11:41:05;101865.44;;;10.72;64.41
15678;BME280;7939;50.814;6.368;2023-02-13T11:43:35;101861.22;;;10.74;64.02
15678;BME280;7939;50.814;6.368;2023-02-13T11:46:04;101867.38;;;10.79;63.79
15678;BME280;7939;50.814;6.368;2023-02-13T11:48:32;101858.00;;;10.80;64.04
15678;BME280;7939;50.814;6.368;2023-02-13T11:51:01;101855.56;;;10.83;63.47
15678;BME280;7939;50.814;6.368;2023-02-13T11:53:29;101851.34;;;10.85;63.99
15678;BME280;7939;50.814;6.368;2023-02-13T11:56:03;101848.84;;;10.87;63.63
15678;BME280;7939;50.814;6.368;2023-02-13T11:58:30;101852.38;;;10.90;63.71
15678;BME280;7939;50.814;6.368;2023-02-13T12:01:24;101843.03;;;10.91;63.37
15678;BME280;7939;50.814;6.368;2023-02-13T12:04:13;101840.56;;;10.94;63.53
15678;BME280;7939;50.814;6.368;2023-02-13T12:06:57;101835.53;;;10.97;63.80
15678;BME280;7939;50.814;6.368;2023-02-13T12:09:24;101840.69;;;10.98;63.86
15678;BME280;7939;50.814;6.368;2023-02-13T12:11:53;101832.25;;;11.01;64.32
15678;BME280;7939;50.814;6.368;2023-02-13T12:14:22;101833.16;;;11.03;63.63
15678;BME280;7939;50.814;6.368;2023-02-13T12:16:52;101831.53;;;11.05;63.97
15678;BME280;7939;50.814;6.368;2023-02-13T12:19:24;101832.50;;;11.08;63.98
15678;BME280;7939;50.814;6.368;2023-02-13T12:22:08;101837.75;;;11.13;63.29
15678;BME280;7939;50.814;6.368;2023-02-13T12:25:05;101828.44;;;11.15;63.61
15678;BME280;7939;50.814;6.368;2023-02-13T12:27:42;101834.50;;;11.19;63.21
15678;BME280;7939;50.814;6.368;2023-02-13T12:30:52;101832.88;;;11.21;63.62
15678;BME280;7939;50.814;6.368;2023-02-13T12:33:46;101826.09;;;11.23;64.13
15678;BME280;7939;50.814;6.368;2023-02-13T12:36:20;101830.50;;;11.27;63.45
15678;BME280;7939;50.814;6.368;2023-02-13T12:39:01;101817.75;;;11.28;63.74
15678;BME280;7939;50.814;6.368;2023-02-13T12:41:38;101810.09;;;11.30;63.26
15678;BME280;7939;50.814;6.368;2023-02-13T12:44:22;101805.84;;;11.30;63.00
15678;BME280;7939;50.814;6.368;2023-02-13T12:47:04;101801.69;;;11.34;64.27
15678;BME280;7939;50.814;6.368;2023-02-13T12:50:00;101799.28;;;11.39;63.76
15678;BME280;7939;50.814;6.368;2023-02-13T12:52:37;101802.75;;;11.41;64.25
15678;BME280;7939;50.814;6.368;2023-02-13T12:55:21;101802.78;;;11.42;64.17
15678;BME280;7939;50.814;6.368;2023-02-13T12:58:00;101800.25;;;11.44;64.29
15678;BME280;7939;50.814;6.368;2023-02-13T13:00:40;101790.13;;;11.47;64.21
15678;BME280;7939;50.814;6.368;2023-02-13T13:03:32;101796.13;;;11.47;63.57
15678;BME280;7939;50.814;6.368;2023-02-13T13:06:17;101789.44;;;11.52;63.72
15678;BME280;7939;50.814;6.368;2023-02-13T13:12:23;101794.88;;;11.63;64.56
15678;BME280;7939;50.814;6.368;2023-02-13T13:14:54;101794.25;;;11.72;64.28
15678;BME280;7939;50.814;6.368;2023-02-13T13:17:43;101787.50;;;11.75;64.13
15678;BME280;7939;50.814;6.368;2023-02-13T13:20:33;101782.38;;;11.75;63.43
15678;BME280;7939;50.814;6.368;2023-02-13T13:23:05;101777.25;;;11.75;64.26
15678;BME280;7939;50.814;6.368;2023-02-13T13:25:39;101772.19;;;11.77;63.93
15678;BME280;7939;50.814;6.368;2023-02-13T13:28:13;101767.09;;;11.78;63.79
15678;BME280;7939;50.814;6.368;2023-02-13T13:30:42;101767.97;;;11.79;64.48
15678;BME280;7939;50.814;6.368;2023-02-13T13:33:13;101769.66;;;11.78;64.40
15678;BME280;7939;50.814;6.368;2023-02-13T13:35:43;101757.75;;;11.80;63.14
15678;BME280;7939;50.814;6.368;2023-02-13T13:38:13;101767.97;;;11.79;63.60